Sunday, December 16, 2018, 10:28 AM GMT
Back to Local

CZBF, Bathurst Airport Aviation Weather Reporting Station

Location: , , Canada Lat: 47.633
Local Time: 10:28 AM GMT (10:28 GMT) Lon: -65.75
Time Zone: GMT Elev: 193 ft

Show me the last for .
Show Decoded

2018-12-16 10:00 METAR CZBF 161000Z AUTO 31005KT 270V340 9SM CLR M01/M05 A3021 RMK SLP234 =
2018-12-16 09:00 METAR CZBF 160900Z AUTO VRB02KT 9SM FEW025 M01/M05 A3021 RMK SLP236 =
2018-12-16 08:00 METAR CZBF 160800Z AUTO 31007KT 9SM BKN027 00/M05 A3021 RMK SLP233 =
2018-12-16 07:00 METAR CZBF 160700Z AUTO 29005G16KT 270V350 9SM FEW031 00/M04 A3020 RMK SLP232 =
2018-12-16 06:00 METAR CZBF 160600Z AUTO 28006KT 9SM CLR 00/M04 A3018 RMK SLP224 =
2018-12-16 05:00 METAR CZBF 160500Z AUTO 28008KT 240V310 9SM CLR 00/M05 A3016 RMK SLP217 =
2018-12-16 04:00 METAR CZBF 160400Z AUTO 29008KT 250V330 9SM CLR 00/M05 A3014 RMK SLP209 =
2018-12-16 03:00 METAR CZBF 160300Z AUTO 28007KT 9SM CLR 00/M05 A3012 RMK SLP204 =
2018-12-16 02:00 METAR CZBF 160200Z AUTO 27008KT 9SM CLR 00/M05 A3013 RMK SLP206 =
2018-12-16 01:00 METAR CZBF 160100Z AUTO 25006KT 9SM CLR M01/M05 A3011 RMK SLP202 =
2018-12-16 00:00 METAR CZBF 160000Z AUTO 27003KT 230V010 9SM CLR 01/M04 A3009 RMK SLP196 =
2018-12-15 23:00 METAR CZBF 152300Z AUTO 28008G15KT 9SM CLR 01/M03 A3008 RMK SLP191 =
2018-12-15 22:00 METAR CZBF 152200Z AUTO 29008G16KT 9SM FEW037 02/M03 A3006 RMK SLP184 =
2018-12-15 21:00 METAR CZBF 152100Z AUTO 29006KT 9SM CLR 02/M02 A3004 RMK SLP177 =
2018-12-15 20:00 METAR CZBF 152000Z AUTO 29007G17KT 9SM FEW030 BKN042 03/M02 A3001 RMK SLP167 =
2018-12-15 19:00 METAR CZBF 151900Z AUTO 29006KT 9SM SCT033 OVC045 03/M02 A2998 RMK SLP157 =
2018-12-15 18:00 METAR CZBF 151800Z AUTO 30012G19KT 9SM FEW031 OVC043 03/M03 A2996 RMK SLP150 =
2018-12-15 17:00 METAR CZBF 151700Z AUTO 29010G20KT 270V330 9SM SCT035 03/M03 A2995 RMK SLP146 =
2018-12-15 16:00 METAR CZBF 151600Z AUTO 30008G19KT 270V350 9SM BKN032 04/M03 A2995 RMK SLP146 =
2018-12-15 15:00 METAR CZBF 151500Z AUTO 29009G16KT 250V310 9SM SCT025 SCT046 03/M02 A2994 RMK
                 SLP144 =
2018-12-15 14:00 METAR CZBF 151400Z AUTO 29010G16KT 260V320 9SM CLR 03/M01 A2993 RMK SLP139 =
2018-12-15 13:00 METAR CZBF 151300Z AUTO 28007KT 240V310 9SM CLR 02/M01 A2992 RMK SLP136 =
2018-12-15 12:00 METAR CZBF 151200Z AUTO 00000KT 6SM BR FEW018 M03/M04 A2991 RMK SLP135 =
2018-12-15 11:59 METAR CZBF 151159Z AUTO 00000KT 6SM BR FEW018 M03/M03 A2991 RMK SLP135 =
2018-12-15 11:54 METAR CZBF 151154Z AUTO VRB02KT 3SM BR FEW018 M03/M03 A2991 RMK SLP133 =
2018-12-15 11:46 METAR CZBF 151146Z AUTO 00000KT 2 1/2SM BR SCT018 M04/M04 A2991 RMK VIS VRB
                 5/8-3 SLP133 =
2018-12-15 11:44 METAR CZBF 151144Z AUTO VRB02KT 3SM BR SCT018 M04/M04 A2991 RMK SLP133 =
2018-12-15 11:37 METAR CZBF 151137Z AUTO 00000KT 6SM BR BKN018 M03/M04 A2990 RMK SLP132 =
2018-12-15 11:24 METAR CZBF 151124Z AUTO 00000KT 3SM BR BKN020 M03/M03 A2990 RMK SLP132 =
2018-12-15 11:22 METAR CZBF 151122Z AUTO 00000KT 2 1/4SM BR BKN020 M03/M03 A2991 RMK SLP133 =
2018-12-15 11:16 METAR CZBF 151116Z AUTO 00000KT 1 3/4SM BR BKN020 M04/M04 A2991 RMK SLP133 =
2018-12-15 11:13 METAR CZBF 151113Z AUTO 09005KT 2 1/2SM BR FEW001 BKN020 M04/M04 A2990 RMK
                 SLP132 =
2018-12-15 11:05 METAR CZBF 151105Z AUTO 07003KT 020V080 3SM BR FEW001 BKN020 M02/M03 A2991 RMK
                 SLP133 =
2018-12-15 11:04 METAR CZBF 151104Z AUTO 07003KT 020V080 2 1/4SM BR FEW001 BKN020 M03/M03 A2991
                 RMK SLP133 =
2018-12-15 11:02 METAR CZBF 151102Z AUTO 06003KT 1 1/4SM BR FEW001 BKN020 M03/M03 A2991 RMK
                 SLP133 =
2018-12-15 11:00 METAR CZBF 151100Z AUTO 05003KT 020V090 1SM BR FEW001 SCT020 M03/M03 A2991 RMK
                 SLP133 =
2018-12-15 10:52 METAR CZBF 151052Z AUTO VRB02KT 1 1/2SM BR FEW023 M03/M03 A2991 RMK VIS VRB
                 3/4-3 SLP133 =
2018-12-15 10:48 METAR CZBF 151048Z AUTO 00000KT 2 1/2SM BR FEW023 M03/M03 A2991 RMK VIS VRB 1
                 1/2-3 SLP133 =
2018-12-15 10:34 METAR CZBF 151034Z AUTO VRB02KT 5SM BR FEW019 SCT024 SCT080 BKN120 M02/M02 A2990
                 RMK SLP131 =

Support USWX by starting your Amazon purchase here.